createdAt,value
2023-04-28T00:01:53.648Z,101395.63
2023-04-28T00:04:21.520Z,101377.41
2023-04-28T00:06:49.421Z,101371.34
2023-04-28T00:09:16.840Z,101368.78
2023-04-28T00:11:47.094Z,101357.50
2023-04-28T00:14:15.129Z,101353.13
2023-04-28T00:16:43.175Z,101347.03
2023-04-28T00:19:10.682Z,101342.59
2023-04-28T00:21:38.168Z,101342.66
2023-04-28T00:24:05.705Z,101338.28
2023-04-28T00:26:33.114Z,101338.25
2023-04-28T00:29:00.525Z,101331.31
2023-04-28T00:31:27.900Z,101326.13
2023-04-28T00:33:55.307Z,101327.97
2023-04-28T00:36:22.796Z,101321.84
2023-04-28T00:38:50.311Z,101327.06
2023-04-28T00:41:17.736Z,101321.84
2023-04-28T00:43:49.854Z,101322.69
2023-04-28T00:46:25.477Z,101312.34
2023-04-28T00:48:53.218Z,101310.66
2023-04-28T00:51:21.185Z,101312.38
2023-04-28T00:53:49.124Z,101299.28
2023-04-28T00:56:16.680Z,101292.41
2023-04-28T00:58:44.175Z,101288.84
2023-04-28T01:01:11.669Z,101286.25
2023-04-28T01:03:40.159Z,101280.19
2023-04-28T01:06:08.939Z,101279.31
2023-04-28T01:08:37.020Z,101285.41
2023-04-28T01:11:04.607Z,101297.50
2023-04-28T01:13:32.057Z,101293.06
2023-04-28T01:16:00.105Z,101284.34
2023-04-28T01:18:27.712Z,101287.13
2023-04-28T01:20:55.120Z,101277.63
2023-04-28T01:23:22.504Z,101274.09
2023-04-28T01:25:49.867Z,101277.53
2023-04-28T01:28:17.275Z,101267.28
2023-04-28T01:30:44.702Z,101265.47
2023-04-28T01:33:12.130Z,101252.50
2023-04-28T01:35:39.576Z,101255.94
2023-04-28T01:38:07.002Z,101251.53
2023-04-28T01:40:34.550Z,101242.97
2023-04-28T01:43:01.926Z,101243.81
2023-04-28T01:45:29.337Z,101242.97
2023-04-28T01:47:56.774Z,101242.06
2023-04-28T01:50:24.170Z,101238.59
2023-04-28T01:52:51.588Z,101241.03
2023-04-28T01:55:19.088Z,101235.91
2023-04-28T01:57:46.475Z,101227.19
2023-04-28T02:00:14.022Z,101225.56
2023-04-28T02:02:41.921Z,101226.41
2023-04-28T02:05:09.658Z,101221.13
2023-04-28T02:07:37.089Z,101221.88
2023-04-28T02:10:04.564Z,101218.53
2023-04-28T02:12:31.949Z,101225.47
2023-04-28T02:14:59.318Z,101216.75
2023-04-28T02:17:26.752Z,101201.19
2023-04-28T02:19:57.643Z,101211.66
2023-04-28T02:22:25.240Z,101207.19
2023-04-28T02:24:52.772Z,101202.06
2023-04-28T02:27:20.758Z,101204.63
2023-04-28T02:29:48.185Z,101203.78
2023-04-28T02:32:15.611Z,101194.19
2023-04-28T02:34:43.018Z,101198.63
2023-04-28T02:37:10.496Z,101194.38
2023-04-28T02:39:37.908Z,101191.66
2023-04-28T02:42:05.493Z,101183.03
2023-04-28T02:44:34.062Z,101183.06
2023-04-28T02:47:01.892Z,101170.81
2023-04-28T02:49:29.505Z,101169.19
2023-04-28T02:51:56.869Z,101158.75
2023-04-28T02:54:28.283Z,101154.31
2023-04-28T02:56:59.149Z,101159.59
2023-04-28T02:59:27.174Z,101150.97
2023-04-28T03:01:54.602Z,101147.50
2023-04-28T03:04:22.453Z,101150.81
2023-04-28T03:06:50.191Z,101134.47
2023-04-28T03:09:17.653Z,101126.66
2023-04-28T03:11:45.046Z,101124.88
2023-04-28T03:14:12.407Z,101137.03
2023-04-28T03:16:39.867Z,101137.97
2023-04-28T03:19:07.238Z,101140.50
2023-04-28T03:21:34.695Z,101141.28
2023-04-28T03:24:03.510Z,101137.13
2023-04-28T03:26:32.823Z,101129.16
2023-04-28T03:29:00.257Z,101126.66
2023-04-28T03:31:27.759Z,101123.16
2023-04-28T03:33:55.311Z,101122.09
2023-04-28T03:36:22.750Z,101124.75
2023-04-28T03:38:50.158Z,101118.72
2023-04-28T03:41:17.570Z,101115.41
2023-04-28T03:43:45.057Z,101105.88
2023-04-28T03:46:12.480Z,101102.34
2023-04-28T03:48:39.927Z,101113.63
2023-04-28T03:51:07.320Z,101099.66
2023-04-28T03:53:34.720Z,101097.91
2023-04-28T03:56:02.194Z,101091.75
2023-04-28T03:58:29.627Z,101092.81
2023-04-28T04:00:57.014Z,101083.09
2023-04-28T04:03:26.430Z,101084.91
2023-04-28T04:05:55.635Z,101081.38
2023-04-28T04:08:23.250Z,101086.66
2023-04-28T04:10:50.701Z,101087.53
2023-04-28T04:13:18.109Z,101076.31
2023-04-28T04:15:45.531Z,101078.00
2023-04-28T04:18:13.287Z,101073.56
2023-04-28T04:20:40.726Z,101065.59
2023-04-28T04:23:08.194Z,101077.84
2023-04-28T04:25:35.663Z,101063.03
2023-04-28T04:28:03.367Z,101062.22
2023-04-28T04:30:30.774Z,101052.78
2023-04-28T04:32:58.194Z,101043.19
2023-04-28T04:35:25.669Z,101050.84
2023-04-28T04:37:53.135Z,101044.88
2023-04-28T04:40:20.615Z,101042.22
2023-04-28T04:42:48.030Z,101040.47
2023-04-28T04:45:15.489Z,101042.16
2023-04-28T04:47:43.058Z,101041.47
2023-04-28T04:50:10.660Z,101020.00
2023-04-28T04:52:38.355Z,101025.94
2023-04-28T04:55:06.024Z,101031.03
2023-04-28T04:57:33.563Z,101028.19
2023-04-28T05:00:01.017Z,101017.03
2023-04-28T05:02:28.588Z,101016.94
2023-04-28T05:05:04.632Z,101007.50
2023-04-28T05:07:40.177Z,101017.59
2023-04-28T05:10:07.973Z,101031.53
2023-04-28T05:12:35.451Z,101034.16
2023-04-28T05:15:02.826Z,101052.41
2023-04-28T05:17:30.287Z,101048.09
2023-04-28T05:19:57.691Z,101047.75
2023-04-28T05:22:26.027Z,101047.59
2023-04-28T05:24:53.477Z,101040.81
2023-04-28T05:27:20.953Z,101041.97
2023-04-28T05:29:48.430Z,101045.34
2023-04-28T05:32:16.048Z,101036.59
2023-04-28T05:34:43.536Z,101038.19
2023-04-28T05:37:11.496Z,101035.59
2023-04-28T05:39:38.847Z,101038.22
2023-04-28T05:42:06.269Z,101039.03
2023-04-28T05:44:33.646Z,101043.31
2023-04-28T05:47:01.384Z,101040.00
2023-04-28T05:49:28.959Z,101044.44
2023-04-28T05:51:56.333Z,101039.03
2023-04-28T05:54:23.734Z,101042.53
2023-04-28T05:56:51.276Z,101039.03
2023-04-28T05:59:18.884Z,101037.16
2023-04-28T06:01:46.610Z,101031.19
2023-04-28T06:04:14.537Z,101019.81
2023-04-28T06:06:42.228Z,101003.09
2023-04-28T06:09:09.603Z,100998.94
2023-04-28T06:11:37.037Z,101011.69
2023-04-28T06:14:04.446Z,101012.88
2023-04-28T06:16:31.912Z,101009.50
2023-04-28T06:18:59.504Z,100999.91
2023-04-28T06:21:27.419Z,100998.34
2023-04-28T06:23:54.800Z,100990.53
2023-04-28T06:26:22.283Z,100986.22
2023-04-28T06:28:49.780Z,100990.25
2023-04-28T06:31:17.321Z,100989.56
2023-04-28T06:33:44.775Z,101003.47
2023-04-28T06:36:13.898Z,101005.88
2023-04-28T06:38:42.923Z,100999.94
2023-04-28T06:41:10.942Z,101009.13
2023-04-28T06:43:38.640Z,100995.31
2023-04-28T06:46:06.135Z,100997.91
2023-04-28T06:48:33.534Z,100980.41
2023-04-28T06:51:00.858Z,100981.38
2023-04-28T06:53:28.269Z,100982.22
2023-04-28T06:55:56.430Z,100995.97
2023-04-28T06:58:23.835Z,100977.59
2023-04-28T07:00:51.345Z,100982.81
2023-04-28T07:03:18.913Z,100982.56
2023-04-28T07:05:46.496Z,100989.50
2023-04-28T07:08:14.077Z,100984.63
2023-04-28T07:10:41.927Z,100991.41
2023-04-28T07:13:09.702Z,101000.72
2023-04-28T07:15:37.287Z,100990.44
2023-04-28T07:18:04.881Z,101006.50
2023-04-28T07:20:32.366Z,100992.38
2023-04-28T07:22:59.744Z,100990.84
2023-04-28T07:25:27.307Z,100985.13
2023-04-28T07:27:55.263Z,100983.28
2023-04-28T07:30:27.750Z,100993.41
2023-04-28T07:32:56.039Z,100992.19
2023-04-28T07:35:23.712Z,100990.19
2023-04-28T07:37:51.327Z,100994.13
2023-04-28T07:40:19.470Z,100982.88
2023-04-28T07:42:47.615Z,100983.13
2023-04-28T07:45:15.872Z,100987.19
2023-04-28T07:47:43.513Z,100986.41
2023-04-28T07:50:12.450Z,100998.94
2023-04-28T07:52:40.531Z,100987.84
2023-04-28T07:55:08.010Z,100986.06
2023-04-28T07:57:36.094Z,100987.47
2023-04-28T08:00:03.586Z,100989.19
2023-04-28T08:02:31.149Z,100989.75
2023-04-28T08:04:58.911Z,100992.56
2023-04-28T08:07:26.748Z,100987.84
2023-04-28T08:09:55.242Z,100989.81
2023-04-28T08:12:22.995Z,100988.44
2023-04-28T08:14:50.508Z,100989.28
2023-04-28T08:17:18.750Z,100990.25
2023-04-28T08:19:46.458Z,100983.34
2023-04-28T08:22:13.995Z,100981.53
2023-04-28T08:24:41.681Z,100975.00
2023-04-28T08:27:09.162Z,100975.31
2023-04-28T08:29:36.561Z,100968.94
2023-04-28T08:32:04.947Z,100983.56
2023-04-28T08:34:32.704Z,100978.34
2023-04-28T08:37:00.260Z,100990.09
2023-04-28T08:39:28.045Z,100981.69
2023-04-28T08:41:55.435Z,100988.50
2023-04-28T08:44:23.677Z,100982.56
2023-04-28T08:46:51.227Z,100981.16
2023-04-28T08:49:19.571Z,100978.03
2023-04-28T08:52:00.599Z,100981.44
2023-04-28T08:54:31.651Z,100976.19
2023-04-28T08:56:59.521Z,100984.19
2023-04-28T08:59:27.314Z,100984.25
2023-04-28T09:01:54.807Z,100979.56
2023-04-28T09:04:22.671Z,100970.25
2023-04-28T09:06:50.397Z,100972.16
2023-04-28T09:09:25.135Z,100974.81
2023-04-28T09:11:56.658Z,100967.59
2023-04-28T09:14:24.569Z,100968.91
2023-04-28T09:16:52.313Z,100974.78
2023-04-28T09:19:19.877Z,100971.00
2023-04-28T09:21:48.492Z,100970.81
2023-04-28T09:24:26.999Z,100968.59
2023-04-28T09:26:55.625Z,100972.72
2023-04-28T09:29:23.586Z,100966.72
2023-04-28T09:31:51.334Z,100974.50
2023-04-28T09:34:18.990Z,100971.56
2023-04-28T09:36:46.568Z,100967.84
2023-04-28T09:39:13.988Z,100962.69
2023-04-28T09:41:42.547Z,100966.81
2023-04-28T09:44:17.864Z,100960.78
2023-04-28T09:46:46.469Z,100958.91
2023-04-28T09:49:14.359Z,100961.41
2023-04-28T09:51:41.974Z,100959.19
2023-04-28T09:54:09.444Z,100953.13
2023-04-28T09:56:40.702Z,100965.47
2023-04-28T09:59:08.351Z,100953.09
2023-04-28T10:01:40.610Z,100955.16
2023-04-28T10:04:08.790Z,100956.72
2023-04-28T10:06:37.326Z,100950.75
2023-04-28T10:09:04.819Z,100958.63
2023-04-28T10:11:33.357Z,100963.97
2023-04-28T10:14:00.998Z,100959.09
2023-04-28T10:16:30.843Z,100959.66
2023-04-28T10:18:58.744Z,100960.28
2023-04-28T10:21:27.745Z,100960.16
2023-04-28T10:23:55.087Z,100951.16
2023-04-28T10:26:23.795Z,100960.66
2023-04-28T10:28:52.382Z,100966.03
2023-04-28T10:31:21.122Z,100958.47
2023-04-28T10:33:49.554Z,100955.81
2023-04-28T10:36:40.030Z,100961.72
2023-04-28T10:39:12.102Z,100958.91
2023-04-28T10:41:39.703Z,100961.47
2023-04-28T10:44:25.963Z,100955.78
2023-04-28T10:47:03.834Z,100962.22
2023-04-28T10:49:50.902Z,100962.66
2023-04-28T10:52:37.888Z,100959.94
2023-04-28T10:55:24.127Z,100964.66
2023-04-28T10:58:11.868Z,100956.22
2023-04-28T11:00:40.037Z,100963.81
2023-04-28T11:03:07.830Z,100957.19
2023-04-28T11:05:36.709Z,100971.69
2023-04-28T11:08:19.631Z,100957.22
2023-04-28T11:11:05.688Z,100951.00
2023-04-28T11:13:34.419Z,100952.44
2023-04-28T11:16:05.663Z,100950.06
2023-04-28T11:18:44.741Z,100942.69
2023-04-28T11:21:12.533Z,100948.16
2023-04-28T11:23:40.666Z,100942.53
2023-04-28T11:26:08.268Z,100944.13
2023-04-28T11:28:36.563Z,100942.88
2023-04-28T11:31:13.436Z,100925.84
2023-04-28T11:33:42.212Z,100942.88
2023-04-28T11:36:22.861Z,100940.44
2023-04-28T11:38:50.335Z,100951.16
2023-04-28T11:41:17.789Z,100939.47
2023-04-28T11:43:47.723Z,100937.50
2023-04-28T11:46:19.391Z,100948.69
2023-04-28T11:48:47.013Z,100943.44
2023-04-28T11:51:34.022Z,100949.50
2023-04-28T11:54:02.517Z,100951.97
2023-04-28T11:56:30.471Z,100955.13
2023-04-28T11:59:04.322Z,100950.97
2023-04-28T12:01:32.068Z,100954.63
2023-04-28T12:03:59.736Z,100953.88
2023-04-28T12:06:28.010Z,100955.94
2023-04-28T12:08:55.537Z,100963.50
2023-04-28T12:11:24.233Z,100958.88
2023-04-28T12:14:06.243Z,100955.59
2023-04-28T12:16:48.309Z,100962.09
2023-04-28T12:19:16.471Z,100960.13
2023-04-28T12:21:44.037Z,100962.34
2023-04-28T12:24:18.564Z,100970.06
2023-04-28T12:26:46.090Z,100964.59
2023-04-28T12:29:32.119Z,100968.13
2023-04-28T12:31:59.595Z,100973.97
2023-04-28T12:34:29.411Z,100970.41
2023-04-28T12:36:56.913Z,100976.06
2023-04-28T12:39:24.907Z,100970.16
2023-04-28T12:41:52.326Z,100971.72
2023-04-28T12:44:20.445Z,100974.13
2023-04-28T12:46:48.069Z,100977.50
2023-04-28T12:49:16.359Z,100976.97
2023-04-28T12:51:43.817Z,100975.75
2023-04-28T12:54:11.282Z,100977.81
2023-04-28T12:56:38.761Z,100972.59
2023-04-28T12:59:06.206Z,100979.06
2023-04-28T13:01:33.931Z,100975.47
2023-04-28T13:04:01.669Z,100980.91
2023-04-28T13:06:29.582Z,100975.13
2023-04-28T13:08:57.022Z,100988.09
2023-04-28T13:11:27.198Z,100977.91
2023-04-28T13:13:55.514Z,100988.00
2023-04-28T13:16:25.128Z,100982.09
2023-04-28T13:18:52.977Z,100986.25
2023-04-28T13:21:20.483Z,100988.91
2023-04-28T13:23:47.951Z,100993.75
2023-04-28T13:26:15.386Z,100991.94
2023-04-28T13:28:42.921Z,100997.53
2023-04-28T13:31:10.430Z,100961.63
2023-04-28T13:33:37.887Z,100997.66
2023-04-28T13:36:08.019Z,101004.03
2023-04-28T13:38:35.690Z,100996.22
2023-04-28T13:41:03.354Z,100995.84
2023-04-28T13:43:31.168Z,101000.53
2023-04-28T13:45:58.924Z,100998.53
2023-04-28T13:48:27.681Z,101005.03
2023-04-28T13:50:55.451Z,101006.22
2023-04-28T13:53:22.937Z,101009.22
2023-04-28T13:55:51.108Z,101003.50
2023-04-28T13:58:18.625Z,101007.94
2023-04-28T14:00:46.055Z,101008.09
2023-04-28T14:03:13.634Z,101010.13
2023-04-28T14:05:48.901Z,101003.28
2023-04-28T14:08:19.426Z,101007.09
2023-04-28T14:10:48.358Z,100994.88
2023-04-28T14:13:16.101Z,101011.88
2023-04-28T14:15:55.036Z,101009.22
2023-04-28T14:18:25.764Z,101013.34
2023-04-28T14:20:54.132Z,101016.81
2023-04-28T14:23:21.754Z,101011.66
2023-04-28T14:25:50.093Z,101017.72
2023-04-28T14:28:17.502Z,101007.31
2023-04-28T14:30:45.049Z,101013.72
2023-04-28T14:33:12.564Z,101014.09
2023-04-28T14:35:41.434Z,101015.31
2023-04-28T14:38:08.949Z,101023.25
2023-04-28T14:40:36.543Z,101020.78
2023-04-28T14:43:03.990Z,101022.03
2023-04-28T14:45:31.481Z,101000.59
2023-04-28T14:47:59.123Z,101016.16
2023-04-28T14:50:26.824Z,101021.16
2023-04-28T14:52:54.328Z,100995.06
2023-04-28T14:55:22.342Z,101022.47
2023-04-28T14:57:49.776Z,101026.31
2023-04-28T15:00:17.521Z,101022.25
2023-04-28T15:02:45.033Z,101020.16
2023-04-28T15:05:12.611Z,101014.75
2023-04-28T15:07:40.127Z,101019.88
2023-04-28T15:10:07.772Z,101025.41
2023-04-28T15:12:37.023Z,101028.50
2023-04-28T15:15:04.586Z,101027.13
2023-04-28T15:17:32.170Z,101034.00
2023-04-28T15:19:59.586Z,101034.38
2023-04-28T15:22:27.005Z,101036.78
2023-04-28T15:24:55.777Z,101039.38
2023-04-28T15:27:23.255Z,101023.34
2023-04-28T15:29:50.730Z,101042.94
2023-04-28T15:32:18.332Z,101041.22
2023-04-28T15:34:45.857Z,101040.50
2023-04-28T15:37:39.293Z,101040.91
2023-04-28T15:40:07.005Z,101034.41
2023-04-28T15:42:34.494Z,101032.97
2023-04-28T15:45:10.298Z,101048.00
2023-04-28T15:47:39.042Z,101043.59
2023-04-28T15:50:07.263Z,101051.03
2023-04-28T15:52:34.735Z,101046.44
2023-04-28T15:55:02.371Z,101046.50
2023-04-28T15:57:30.054Z,101041.81
2023-04-28T15:59:58.443Z,101042.72
2023-04-28T16:02:26.240Z,101041.44
2023-04-28T16:04:54.107Z,101048.53
2023-04-28T16:07:22.295Z,101043.88
2023-04-28T16:09:49.704Z,101049.09
2023-04-28T16:12:17.356Z,101047.63
2023-04-28T16:14:44.787Z,101047.97
2023-04-28T16:17:12.192Z,101047.78
2023-04-28T16:19:39.769Z,101055.78
2023-04-28T16:22:07.156Z,101054.34
2023-04-28T16:24:36.442Z,101064.16
2023-04-28T16:27:04.556Z,101055.72
2023-04-28T16:29:31.996Z,101063.13
2023-04-28T16:31:59.455Z,101078.44
2023-04-28T16:34:27.066Z,101072.38
2023-04-28T16:36:54.462Z,101074.22
2023-04-28T16:39:21.934Z,101070.25
2023-04-28T16:41:49.615Z,101080.31
2023-04-28T16:44:17.034Z,101079.03
2023-04-28T16:46:44.464Z,101089.91
2023-04-28T16:49:12.945Z,101088.25
2023-04-28T16:51:40.495Z,101086.09
2023-04-28T16:54:07.942Z,101085.47
2023-04-28T16:56:38.976Z,101092.00
2023-04-28T16:59:07.088Z,101094.31
2023-04-28T17:01:34.680Z,101089.09
2023-04-28T17:04:06.657Z,101099.00
2023-04-28T17:06:34.385Z,101099.56
2023-04-28T17:09:01.940Z,101098.31
2023-04-28T17:11:29.298Z,101100.63
2023-04-28T17:13:56.693Z,101106.03
2023-04-28T17:16:24.108Z,101104.72
2023-04-28T17:18:52.886Z,101101.53
2023-04-28T17:21:20.384Z,101113.66
2023-04-28T17:23:47.815Z,101112.78
2023-04-28T17:26:16.365Z,101111.94
2023-04-28T17:28:44.194Z,101111.03
2023-04-28T17:31:13.432Z,101120.59
2023-04-28T17:33:40.866Z,101116.19
2023-04-28T17:36:08.401Z,101126.41
2023-04-28T17:38:36.282Z,101124.41
2023-04-28T17:41:03.886Z,101126.41
2023-04-28T17:43:31.579Z,101123.78
2023-04-28T17:45:59.126Z,101130.00
2023-04-28T17:48:26.602Z,101141.94
2023-04-28T17:50:54.324Z,101139.50
2023-04-28T17:53:21.781Z,101146.44
2023-04-28T17:55:49.307Z,101152.50
2023-04-28T17:58:16.675Z,101145.28
2023-04-28T18:00:44.060Z,101150.25
2023-04-28T18:03:11.607Z,101146.00
2023-04-28T18:05:39.098Z,101155.53
2023-04-28T18:08:06.502Z,101164.28
2023-04-28T18:10:33.863Z,101156.34
2023-04-28T18:13:02.349Z,101156.53
2023-04-28T18:15:30.574Z,101155.16
2023-04-28T18:17:58.075Z,101157.59
2023-04-28T18:20:25.786Z,101160.19
2023-04-28T18:22:53.250Z,101159.09
2023-04-28T18:25:20.623Z,101169.53
2023-04-28T18:27:48.070Z,101167.91
2023-04-28T18:30:15.508Z,101166.75
2023-04-28T18:32:43.177Z,101179.47
2023-04-28T18:35:10.844Z,101173.38
2023-04-28T18:37:38.229Z,101180.56
2023-04-28T18:40:06.517Z,101183.75
2023-04-28T18:42:34.121Z,101182.84
2023-04-28T18:45:01.696Z,101169.63
2023-04-28T18:47:29.262Z,101176.94
2023-04-28T18:49:57.343Z,101178.38
2023-04-28T18:52:24.942Z,101178.78
2023-04-28T18:54:52.349Z,101177.94
2023-04-28T18:57:20.089Z,101176.88
2023-04-28T18:59:49.087Z,101187.81
2023-04-28T19:02:17.725Z,101180.50
2023-04-28T19:04:46.137Z,101192.16
2023-04-28T19:07:13.592Z,101198.31
2023-04-28T19:09:42.255Z,101199.03
2023-04-28T19:12:09.787Z,101204.19
2023-04-28T19:14:37.367Z,101206.00
2023-04-28T19:17:05.060Z,101209.69
2023-04-28T19:19:32.971Z,101217.63
2023-04-28T19:22:03.017Z,101212.50
2023-04-28T19:24:30.485Z,101212.22
2023-04-28T19:26:59.712Z,101224.38
2023-04-28T19:29:27.142Z,101218.00
2023-04-28T19:31:54.614Z,101227.59
2023-04-28T19:34:22.044Z,101237.13
2023-04-28T19:36:49.608Z,101235.31
2023-04-28T19:39:17.511Z,101242.31
2023-04-28T19:41:46.863Z,101245.63
2023-04-28T19:44:14.316Z,101250.75
2023-04-28T19:46:42.569Z,101252.59
2023-04-28T19:49:11.179Z,101248.97
2023-04-28T19:51:38.675Z,101250.84
2023-04-28T19:54:06.141Z,101252.91
2023-04-28T19:56:33.672Z,101251.25
2023-04-28T19:59:01.233Z,101260.78
2023-04-28T20:01:29.103Z,101261.69
2023-04-28T20:03:56.761Z,101266.91
2023-04-28T20:06:24.377Z,101268.19
2023-04-28T20:08:51.853Z,101267.91
2023-04-28T20:11:19.563Z,101277.56
2023-04-28T20:13:47.009Z,101281.03
2023-04-28T20:16:14.487Z,101286.19
2023-04-28T20:18:41.912Z,101277.44
2023-04-28T20:21:09.772Z,101288.31
2023-04-28T20:23:37.792Z,101289.09
2023-04-28T20:26:05.727Z,101290.13
2023-04-28T20:28:33.188Z,101302.47
2023-04-28T20:31:00.798Z,101304.00
2023-04-28T20:33:28.356Z,101296.09
2023-04-28T20:35:55.786Z,101310.19
2023-04-28T20:38:23.547Z,101314.88
2023-04-28T20:40:51.064Z,101320.00
2023-04-28T20:43:18.603Z,101325.13
2023-04-28T20:45:46.171Z,101333.88
2023-04-28T20:48:13.804Z,101331.53
2023-04-28T20:50:43.048Z,101340.81
2023-04-28T20:53:10.569Z,101335.66
2023-04-28T20:55:38.004Z,101348.78
2023-04-28T20:58:06.890Z,101341.69
2023-04-28T21:00:38.209Z,101337.53
2023-04-28T21:03:05.848Z,101356.03
2023-04-28T21:05:33.448Z,101347.94
2023-04-28T21:08:00.981Z,101352.41
2023-04-28T21:10:28.459Z,101344.63
2023-04-28T21:12:55.913Z,101352.41
2023-04-28T21:15:23.272Z,101361.00
2023-04-28T21:17:50.757Z,101354.75
2023-04-28T21:20:18.362Z,101349.88
2023-04-28T21:22:45.912Z,101359.66
2023-04-28T21:25:13.341Z,101359.63
2023-04-28T21:27:40.766Z,101362.31
2023-04-28T21:30:08.502Z,101373.59
2023-04-28T21:32:35.918Z,101364.84
2023-04-28T21:35:03.418Z,101370.94
2023-04-28T21:37:31.802Z,101370.91
2023-04-28T21:39:59.270Z,101376.16
2023-04-28T21:42:31.613Z,101378.00
2023-04-28T21:44:59.351Z,101375.44
2023-04-28T21:47:26.932Z,101371.88
2023-04-28T21:49:54.427Z,101385.91
2023-04-28T21:52:21.945Z,101370.09
2023-04-28T21:54:49.382Z,101372.69
2023-04-28T21:57:16.875Z,101377.03
2023-04-28T21:59:44.389Z,101393.47
2023-04-28T22:02:12.436Z,101377.09
2023-04-28T22:04:40.131Z,101399.00
2023-04-28T22:07:07.905Z,101398.13
2023-04-28T22:09:35.398Z,101393.66
2023-04-28T22:12:03.069Z,101403.28
2023-04-28T22:17:00.952Z,101404.09
2023-04-28T22:19:28.416Z,101397.16
2023-04-28T22:21:55.799Z,101398.88
2023-04-28T22:24:23.230Z,101398.13
2023-04-28T22:26:51.004Z,101404.22
2023-04-28T22:29:20.803Z,101411.00
2023-04-28T22:31:48.327Z,101406.69
2023-04-28T22:34:16.846Z,101415.41
2023-04-28T22:36:45.056Z,101414.59
2023-04-28T22:39:12.781Z,101412.88
2023-04-28T22:41:40.216Z,101424.16
2023-04-28T22:44:07.725Z,101425.03
2023-04-28T22:46:35.596Z,101412.88
2023-04-28T22:49:04.965Z,101411.09
2023-04-28T22:51:32.721Z,101418.09
2023-04-28T22:54:01.471Z,101413.63
2023-04-28T22:56:28.955Z,101424.97
2023-04-28T22:58:56.470Z,101423.31
2023-04-28T23:01:24.135Z,101424.97
2023-04-28T23:03:51.760Z,101430.25
2023-04-28T23:06:19.307Z,101428.41
2023-04-28T23:08:46.746Z,101432.84
2023-04-28T23:11:14.133Z,101431.09
2023-04-28T23:13:41.552Z,101418.84
2023-04-28T23:16:09.230Z,101431.91
2023-04-28T23:18:36.679Z,101441.50
2023-04-28T23:21:04.235Z,101442.31
2023-04-28T23:23:32.667Z,101437.06
2023-04-28T23:26:00.252Z,101443.28
2023-04-28T23:28:27.592Z,101460.72
2023-04-28T23:30:55.094Z,101446.72
2023-04-28T23:33:22.464Z,101458.06
2023-04-28T23:35:49.840Z,101462.44
2023-04-28T23:38:17.338Z,101467.66
2023-04-28T23:40:44.673Z,101463.34
2023-04-28T23:43:12.912Z,101461.63
2023-04-28T23:45:40.758Z,101461.63
2023-04-28T23:48:08.204Z,101466.84
2023-04-28T23:50:35.637Z,101472.94
2023-04-28T23:53:03.100Z,101472.06
2023-04-28T23:55:30.536Z,101473.78
2023-04-28T23:57:58.344Z,101478.94
